Time;durP1;ratioP1;P1;durP2;ratioP2;P2;SDS_P1;SDS_P2;PMS_P1;PMS_P2;Temp;Humidity;BMP_temperature;BMP_pressure;BME280_temperature;BME280_humidity;BME280_pressure;Samples;Min_cycle;Max_cycle;Signal;HPM_P1;HPM_P2
2023/02/28 00:00:22;;;;;;;6.78;4.97;;;2.40;99.90;;;;;;5049383;28;20291;-82
2023/02/28 00:02:50;;;;;;;12.13;5.90;;;2.30;99.90;;;;;;5045299;28;20316;-82
2023/02/28 00:05:19;;;;;;;7.40;4.97;;;2.30;99.90;;;;;;5043100;28;20217;-82
2023/02/28 00:07:46;;;;;;;5.05;4.32;;;2.20;99.90;;;;;;5043079;28;20644;-82
2023/02/28 00:10:15;;;;;;;4.63;4.22;;;2.20;99.90;;;;;;5042283;28;20235;-82
2023/02/28 00:12:42;;;;;;;7.95;4.30;;;2.20;99.90;;;;;;5041968;28;20322;-82
2023/02/28 00:15:12;;;;;;;5.43;3.90;;;2.20;99.90;;;;;;5042793;28;20200;-81
2023/02/28 00:17:39;;;;;;;5.50;3.90;;;2.30;99.90;;;;;;5041725;28;20214;-82
2023/02/28 00:20:09;;;;;;;4.68;4.18;;;2.20;99.90;;;;;;5041855;28;20235;-82
2023/02/28 00:22:37;;;;;;;4.22;3.20;;;2.10;99.90;;;;;;5041797;28;20224;-81
2023/02/28 00:25:04;;;;;;;5.63;3.67;;;2.00;99.90;;;;;;5041675;28;20307;-82
2023/02/28 00:27:31;;;;;;;4.50;3.90;;;2.10;1.00;;;;;;5041931;28;20691;-82
2023/02/28 00:29:58;;;;;;;7.50;3.78;;;2.10;99.90;;;;;;5041581;28;20227;-82
2023/02/28 00:32:26;;;;;;;5.60;4.00;;;2.10;1.00;;;;;;5041245;28;20225;-82
2023/02/28 00:34:53;;;;;;;4.50;3.92;;;2.00;99.90;;;;;;5041443;28;20204;-82
2023/02/28 00:37:20;;;;;;;5.22;4.72;;;2.00;99.90;;;;;;5041949;28;20232;-82
2023/02/28 00:39:47;;;;;;;5.05;4.45;;;2.10;99.90;;;;;;5042023;28;20300;-82
2023/02/28 00:42:14;;;;;;;6.25;4.68;;;2.10;1.00;;;;;;5042115;28;20715;-82
2023/02/28 00:44:40;;;;;;;5.50;4.97;;;2.10;99.90;;;;;;5047717;28;20279;-82
2023/02/28 00:47:07;;;;;;;4.68;4.25;;;2.00;99.90;;;;;;5060538;28;20180;-81
2023/02/28 00:49:35;;;;;;;7.38;5.13;;;2.10;1.00;;;;;;5062671;28;20227;-81
2023/02/28 00:52:02;;;;;;;8.23;4.85;;;2.00;99.90;;;;;;5056427;28;20231;-81
2023/02/28 00:54:29;;;;;;;10.65;5.50;;;1.90;99.90;;;;;;5054906;28;20335;-81
2023/02/28 00:56:56;;;;;;;7.65;4.85;;;1.90;1.00;;;;;;5054233;28;20207;-81
2023/02/28 00:59:23;;;;;;;9.57;5.20;;;1.90;1.00;;;;;;5055587;28;20208;-81
2023/02/28 01:01:50;;;;;;;8.35;4.47;;;1.90;99.90;;;;;;5053548;28;20307;-81
2023/02/28 01:04:17;;;;;;;7.93;4.25;;;1.90;1.00;;;;;;5057311;28;20204;-81
2023/02/28 01:06:45;;;;;;;8.45;5.88;;;1.90;1.00;;;;;;5053364;28;20208;-81
2023/02/28 01:09:12;;;;;;;6.10;5.05;;;1.90;1.00;;;;;;5045702;28;20300;-81
2023/02/28 01:11:41;;;;;;;8.15;4.88;;;1.90;1.00;;;;;;5050139;28;20295;-82
2023/02/28 01:14:09;;;;;;;6.00;4.45;;;1.90;1.00;;;;;;5055899;28;20204;-82
2023/02/28 01:16:35;;;;;;;6.97;5.25;;;1.90;99.90;;;;;;5054140;28;20291;-82
2023/02/28 01:19:02;;;;;;;10.10;5.03;;;1.80;1.00;;;;;;5045858;28;20302;-81
2023/02/28 01:21:30;;;;;;;6.70;4.68;;;1.80;1.00;;;;;;5047012;28;20255;-82
2023/02/28 01:23:58;;;;;;;6.82;5.35;;;1.80;1.00;;;;;;5047004;28;20232;-82
2023/02/28 01:26:25;;;;;;;7.45;5.82;;;1.80;1.00;;;;;;5045764;28;20749;-82
2023/02/28 01:28:53;;;;;;;7.70;5.40;;;1.70;1.00;;;;;;5045486;28;20216;-82
2023/02/28 01:31:21;;;;;;;9.57;5.82;;;1.70;1.00;;;;;;5046246;28;20797;-82
2023/02/28 01:33:49;;;;;;;8.15;4.93;;;1.90;1.00;;;;;;5045957;28;20282;-82
2023/02/28 01:36:18;;;;;;;5.82;4.60;;;1.70;1.00;;;;;;5045806;28;20294;-82
2023/02/28 01:38:45;;;;;;;10.93;4.80;;;1.70;1.00;;;;;;5044945;28;20210;-82
2023/02/28 01:41:18;;;;;;;6.22;5.53;;;1.60;1.00;;;;;;5044535;28;20697;-82
2023/02/28 01:44:02;;;;;;;7.53;5.55;;;1.60;1.00;;;;;;5044947;28;20304;-83
2023/02/28 01:46:29;;;;;;;6.97;4.90;;;1.60;1.00;;;;;;5044786;28;20539;-83
2023/02/28 01:49:02;;;;;;;6.25;5.47;;;1.50;1.00;;;;;;5045111;28;20200;-83
2023/02/28 01:51:33;;;;;;;6.30;4.63;;;1.50;1.00;;;;;;5049153;28;20659;-82
2023/02/28 01:54:01;;;;;;;5.70;4.80;;;1.40;18.30;;;;;;5045697;28;20191;-82
2023/02/28 01:56:34;;;;;;;5.70;4.70;;;1.30;82.80;;;;;;5045489;28;20210;-82
2023/02/28 01:59:01;;;;;;;6.07;5.45;;;1.20;99.90;;;;;;5044373;28;20283;-82
2023/02/28 02:01:29;;;;;;;6.43;5.45;;;1.20;1.00;;;;;;5051991;28;20272;-83
2023/02/28 02:03:58;;;;;;;6.60;5.55;;;1.20;1.00;;;;;;5057452;28;20216;-82
2023/02/28 02:06:29;;;;;;;7.88;5.72;;;1.20;99.90;;;;;;5052312;28;20260;-82
2023/02/28 02:08:56;;;;;;;7.32;5.70;;;1.30;99.90;;;;;;5046825;28;20260;-82
2023/02/28 02:11:25;;;;;;;7.13;4.53;;;1.10;1.00;;;;;;5084774;22;20284;-81
2023/02/28 02:14:11;;;;;;;8.60;6.43;;;1.00;1.00;;;;;;5062138;28;20210;-82
2023/02/28 02:16:48;;;;;;;6.00;4.85;;;1.00;1.00;;;;;;5066061;28;20274;-80
2023/02/28 02:19:45;;;;;;;8.68;5.30;;;1.00;1.00;;;;;;5061502;28;20569;-81
2023/02/28 02:22:44;;;;;;;6.07;4.95;;;1.00;1.00;;;;;;5058206;28;20228;-81
2023/02/28 02:25:25;;;;;;;6.10;4.55;;;0.90;1.00;;;;;;5057768;28;20212;-82
2023/02/28 02:28:26;;;;;;;9.18;6.05;;;0.80;1.00;;;;;;5057610;28;20215;-82
2023/02/28 02:31:30;;;;;;;8.20;5.05;;;0.80;87.90;;;;;;5021810;28;20218;-82
2023/02/28 02:34:38;;;;;;;5.72;5.20;;;0.70;99.90;;;;;;5057508;28;20245;-82
2023/02/28 02:37:14;;;;;;;5.60;4.78;;;0.60;99.90;;;;;;5057374;28;20198;-82
2023/02/28 02:39:49;;;;;;;7.93;5.45;;;0.60;99.90;;;;;;5057340;28;20193;-82
2023/02/28 02:42:22;;;;;;;6.22;4.75;;;0.70;1.00;;;;;;5059509;28;20219;-81
2023/02/28 02:44:53;;;;;;;5.60;5.03;;;0.70;99.90;;;;;;5061223;28;20208;-81
2023/02/28 02:47:25;;;;;;;6.03;5.40;;;0.60;99.90;;;;;;5066349;28;20188;-81
2023/02/28 02:49:56;;;;;;;6.85;5.57;;;0.60;99.90;;;;;;5065605;28;20188;-81
2023/02/28 02:52:30;;;;;;;5.85;5.00;;;0.60;1.00;;;;;;5064287;28;20234;-82
2023/02/28 02:54:59;;;;;;;8.82;5.75;;;0.60;1.00;;;;;;5064782;28;20211;-81
2023/02/28 02:57:31;;;;;;;5.72;5.07;;;0.50;1.00;;;;;;5063929;28;20200;-80
2023/02/28 02:59:59;;;;;;;6.13;5.15;;;0.50;1.00;;;;;;5060084;28;20186;-82
2023/02/28 03:02:34;;;;;;;8.65;5.55;;;0.50;1.00;;;;;;5060086;28;20233;-82
2023/02/28 03:05:07;;;;;;;6.00;5.40;;;0.40;1.00;;;;;;5076144;28;20573;-80
2023/02/28 03:07:34;;;;;;;9.23;5.47;;;0.40;1.00;;;;;;5071442;28;20187;-82
2023/02/28 03:10:01;;;;;;;7.85;5.20;;;0.50;1.00;;;;;;5060808;28;20225;-82
2023/02/28 03:12:38;;;;;;;14.60;6.43;;;0.50;1.00;;;;;;5059742;28;20281;-81
2023/02/28 03:15:15;;;;;;;7.93;6.10;;;0.50;1.00;;;;;;5058577;28;20372;-81
2023/02/28 03:18:02;;;;;;;9.60;5.72;;;0.50;1.00;;;;;;5060515;28;20606;-81
2023/02/28 03:20:39;;;;;;;8.52;5.72;;;0.60;1.00;;;;;;5059012;28;20241;-82
2023/02/28 03:23:15;;;;;;;6.97;5.55;;;0.90;1.00;;;;;;5057214;28;20712;-79
2023/02/28 03:25:54;;;;;;;5.80;4.82;;;0.70;1.00;;;;;;5062411;28;20203;-81
2023/02/28 03:28:29;;;;;;;7.38;5.15;;;0.70;1.00;;;;;;5062922;28;20183;-81
2023/02/28 03:31:04;;;;;;;10.48;6.90;;;0.70;99.90;;;;;;5063255;28;20201;-83
2023/02/28 03:33:35;;;;;;;7.85;6.00;;;0.60;1.00;;;;;;5062131;28;20245;-83
2023/02/28 03:36:09;;;;;;;8.07;5.60;;;0.60;1.00;;;;;;5057297;28;20194;-82
2023/02/28 03:38:42;;;;;;;6.80;6.10;;;0.70;1.00;;;;;;5057404;28;20199;-82
2023/02/28 03:41:15;;;;;;;6.45;5.47;;;0.30;1.00;;;;;;5056675;28;20195;-82
2023/02/28 03:43:45;;;;;;;10.68;5.55;;;0.60;1.00;;;;;;5056835;28;20635;-82
2023/02/28 03:46:15;;;;;;;6.47;5.20;;;0.60;1.00;;;;;;5057081;28;20268;-82
2023/02/28 03:48:45;;;;;;;6.80;5.30;;;0.50;1.00;;;;;;5056749;28;20294;-82
2023/02/28 03:51:18;;;;;;;7.50;5.50;;;0.30;45.00;;;;;;5056266;28;20207;-82
2023/02/28 03:53:48;;;;;;;6.20;5.18;;;0.30;1.00;;;;;;5056179;28;20195;-83
2023/02/28 03:56:18;;;;;;;8.68;6.10;;;0.20;1.00;;;;;;5057445;28;20553;-82
2023/02/28 03:58:52;;;;;;;6.43;5.60;;;0.20;44.60;;;;;;5056291;28;20285;-82
2023/02/28 04:01:23;;;;;;;8.30;5.95;;;0.00;99.90;;;;;;5056936;28;20230;-82
2023/02/28 04:03:51;;;;;;;6.57;5.00;;;0.20;99.90;;;;;;5061086;28;20270;-80
2023/02/28 04:06:21;;;;;;;8.43;6.45;;;0.30;99.90;;;;;;5057781;28;20197;-81
2023/02/28 04:08:48;;;;;;;10.27;7.00;;;0.30;99.90;;;;;;5055849;28;20196;-81
2023/02/28 04:11:21;;;;;;;5.45;4.93;;;-0.10;99.90;;;;;;5055864;28;20298;-82
2023/02/28 04:13:48;;;;;;;7.90;6.55;;;0.10;99.90;;;;;;5056346;28;20607;-82
2023/02/28 04:16:16;;;;;;;8.07;5.85;;;0.10;1.00;;;;;;5056410;28;20203;-82
2023/02/28 04:18:43;;;;;;;6.38;5.25;;;0.20;99.90;;;;;;5056214;28;20207;-82
2023/02/28 04:21:11;;;;;;;6.60;5.47;;;0.10;99.90;;;;;;5056192;28;20327;-80
2023/02/28 04:23:40;;;;;;;7.47;5.70;;;0.00;99.90;;;;;;5060716;28;20674;-83
2023/02/28 04:26:06;;;;;;;6.55;5.15;;;0.10;99.90;;;;;;5054878;28;20265;-82
2023/02/28 04:28:33;;;;;;;7.43;5.10;;;0.20;65.40;;;;;;5055577;28;20623;-82
2023/02/28 04:31:02;;;;;;;7.47;5.90;;;0.10;1.00;;;;;;5055941;28;20577;-83
2023/02/28 04:33:30;;;;;;;5.18;4.68;;;0.00;66.40;;;;;;5057463;28;20227;-81
2023/02/28 04:36:02;;;;;;;8.30;6.38;;;-0.10;99.90;;;;;;5063228;28;20204;-80
2023/02/28 04:38:29;;;;;;;9.00;6.88;;;-0.10;99.90;;;;;;5058040;28;20253;-82
2023/02/28 04:41:00;;;;;;;6.28;5.68;;;-0.10;1.00;;;;;;5056956;28;20297;-82
2023/02/28 04:43:27;;;;;;;7.05;5.50;;;-0.10;99.90;;;;;;5056197;28;20229;-82
2023/02/28 04:45:56;;;;;;;12.50;7.78;;;-0.20;1.00;;;;;;5056496;28;20223;-83
2023/02/28 04:48:23;;;;;;;9.95;7.28;;;-0.10;1.00;;;;;;5055793;28;20210;-82
2023/02/28 04:50:50;;;;;;;9.23;6.95;;;-0.10;99.90;;;;;;5056061;28;20302;-82
2023/02/28 04:53:17;;;;;;;7.18;6.20;;;-0.10;99.90;;;;;;5055335;28;20333;-83
2023/02/28 04:55:44;;;;;;;8.45;6.57;;;-0.10;1.00;;;;;;5056628;28;20199;-81
2023/02/28 04:58:12;;;;;;;11.07;6.50;;;-0.20;99.90;;;;;;5057590;28;20199;-81
2023/02/28 05:00:39;;;;;;;10.18;6.47;;;-0.20;99.90;;;;;;5056214;28;20200;-82
2023/02/28 05:03:06;;;;;;;10.70;5.90;;;-0.20;99.90;;;;;;5056022;28;20219;-83
2023/02/28 05:05:33;;;;;;;9.75;6.55;;;-0.20;99.90;;;;;;5055090;28;20542;-82
2023/02/28 05:08:00;;;;;;;8.70;7.00;;;-0.30;99.90;;;;;;5055822;28;20611;-82
2023/02/28 05:10:27;;;;;;;6.80;6.15;;;-0.20;1.00;;;;;;5056882;28;20210;-81
2023/02/28 05:12:54;;;;;;;8.95;6.25;;;-0.20;99.90;;;;;;5061596;28;20249;-82
2023/02/28 05:15:22;;;;;;;7.05;6.30;;;-0.30;1.00;;;;;;5059127;28;20201;-83
2023/02/28 05:17:49;;;;;;;7.20;6.50;;;-0.30;99.90;;;;;;5062265;28;20206;-81
2023/02/28 05:20:16;;;;;;;11.40;6.78;;;-0.30;99.90;;;;;;5061632;28;20294;-81
2023/02/28 05:22:44;;;;;;;9.23;6.72;;;-0.30;99.90;;;;;;5058879;28;20231;-81
2023/02/28 05:25:14;;;;;;;8.98;6.20;;;-0.30;99.90;;;;;;5055778;28;20231;-82
2023/02/28 05:27:41;;;;;;;8.32;6.38;;;-0.30;99.90;;;;;;5058207;28;20194;-82
2023/02/28 05:30:11;;;;;;;9.43;7.35;;;-0.30;99.90;;;;;;5056935;28;20208;-81
2023/02/28 05:32:42;;;;;;;13.60;11.43;;;-0.30;99.90;;;;;;5060842;28;20231;-80
2023/02/28 05:35:11;;;;;;;12.38;7.15;;;-0.30;99.90;;;;;;5060370;28;20214;-81
2023/02/28 05:37:38;;;;;;;11.13;6.95;;;-0.40;99.80;;;;;;5059098;28;20207;-82
2023/02/28 05:40:10;;;;;;;9.88;7.20;;;-0.40;99.90;;;;;;5059858;28;20209;-82
2023/02/28 05:42:37;;;;;;;8.80;7.60;;;-0.30;99.90;;;;;;5059719;28;20223;-82
2023/02/28 05:45:04;;;;;;;10.45;6.93;;;-0.40;99.90;;;;;;5059261;28;20321;-82
2023/02/28 05:47:31;;;;;;;7.20;6.15;;;-0.50;99.90;;;;;;5059110;28;20204;-82
2023/02/28 05:49:59;;;;;;;9.05;6.68;;;-0.50;99.90;;;;;;5059762;28;20203;-82
2023/02/28 05:52:26;;;;;;;10.85;5.75;;;-0.50;99.90;;;;;;5062020;28;20735;-80
2023/02/28 05:54:53;;;;;;;7.68;6.05;;;-0.50;99.90;;;;;;5074697;28;20230;-80
2023/02/28 05:57:20;;;;;;;10.77;8.05;;;-0.50;1.00;;;;;;5074184;28;20231;-81
2023/02/28 05:59:47;;;;;;;10.30;7.28;;;-0.10;1.00;;;;;;5074654;28;20209;-80
2023/02/28 06:02:16;;;;;;;8.52;6.80;;;-0.40;1.00;;;;;;5076318;28;20287;-81
2023/02/28 06:04:43;;;;;;;9.63;6.93;;;-0.30;1.00;;;;;;5074893;28;20211;-79
2023/02/28 06:07:12;;;;;;;11.73;7.00;;;-0.20;99.90;;;;;;5071755;28;20204;-80
2023/02/28 06:09:39;;;;;;;8.95;6.80;;;-0.40;99.90;;;;;;5069868;28;20203;-80
2023/02/28 06:12:09;;;;;;;11.13;6.88;;;-0.50;99.90;;;;;;5066917;28;20254;-80
2023/02/28 06:14:37;;;;;;;10.65;6.30;;;-0.50;99.90;;;;;;5067229;28;20202;-80
2023/02/28 06:17:04;;;;;;;10.45;7.97;;;-0.50;99.90;;;;;;5066391;28;20210;-81
2023/02/28 06:19:31;;;;;;;7.38;6.60;;;-0.50;99.90;;;;;;5065509;28;20203;-80
2023/02/28 06:21:59;;;;;;;12.40;6.47;;;-0.50;1.00;;;;;;5064803;28;20219;-82
2023/02/28 06:24:28;;;;;;;15.05;7.72;;;-0.40;1.00;;;;;;5062192;28;20214;-81
2023/02/28 06:26:58;;;;;;;7.22;6.47;;;-0.30;1.00;;;;;;5062798;28;20219;-82
2023/02/28 06:29:25;;;;;;;13.45;7.00;;;-0.30;1.00;;;;;;5062834;28;20234;-82
2023/02/28 06:31:52;;;;;;;8.90;6.68;;;-0.30;99.90;;;;;;5062508;28;20318;-80
2023/02/28 06:34:19;;;;;;;12.10;8.40;;;-0.30;99.90;;;;;;5069491;28;20294;-81
2023/02/28 06:36:46;;;;;;;7.72;6.07;;;-0.20;99.90;;;;;;5067251;28;20649;-80
2023/02/28 06:39:12;;;;;;;9.18;7.50;;;-0.20;99.90;;;;;;5068684;28;20203;-80
2023/02/28 06:41:40;;;;;;;11.13;6.70;;;-0.20;99.90;;;;;;5067116;28;20227;-81
2023/02/28 06:44:16;;;;;;;18.65;10.32;;;-0.20;99.90;;;;;;5070405;28;20272;-80
2023/02/28 06:46:44;;;;;;;11.00;7.45;;;-0.20;99.90;;;;;;5068119;28;20269;-80
2023/02/28 06:49:11;;;;;;;8.00;7.15;;;-0.20;99.90;;;;;;5064594;28;20290;-79
2023/02/28 06:51:41;;;;;;;14.77;7.85;;;0.00;99.90;;;;;;5068525;28;20227;-80
2023/02/28 06:54:09;;;;;;;10.85;8.77;;;0.10;99.90;;;;;;5064698;28;20253;-79
2023/02/28 06:56:36;;;;;;;11.23;8.30;;;0.10;99.90;;;;;;5061740;28;20226;-82
2023/02/28 06:59:07;;;;;;;18.65;12.30;;;0.00;26.80;;;;;;5060025;28;20211;-83
2023/02/28 07:01:34;;;;;;;11.68;7.93;;;0.20;1.00;;;;;;5059237;28;20227;-83
2023/02/28 07:04:02;;;;;;;9.23;7.97;;;0.20;99.90;;;;;;5058574;28;20218;-83
2023/02/28 07:06:29;;;;;;;17.25;7.75;;;0.30;27.70;;;;;;5059310;28;20250;-83
2023/02/28 07:08:56;;;;;;;11.50;8.05;;;0.40;1.00;;;;;;5059132;28;20257;-82
2023/02/28 07:11:26;;;;;;;10.60;8.52;;;0.40;99.90;;;;;;5058398;28;20614;-83
2023/02/28 07:13:53;;;;;;;13.88;9.48;;;0.40;1.00;;;;;;5058454;28;20271;-83
2023/02/28 07:16:21;;;;;;;8.15;7.32;;;0.50;1.00;;;;;;5058057;28;20206;-82
2023/02/28 07:18:48;;;;;;;11.25;8.07;;;0.50;99.90;;;;;;5057509;28;20200;-83
2023/02/28 07:21:15;;;;;;;9.30;7.75;;;0.80;99.90;;;;;;5059394;28;20203;-82
2023/02/28 07:23:42;;;;;;;12.88;9.13;;;0.60;1.00;;;;;;5057681;28;20290;-82
2023/02/28 07:26:14;;;;;;;10.20;8.35;;;0.70;1.00;;;;;;5057619;28;20235;-85
2023/02/28 07:28:42;;;;;;;13.23;8.52;;;0.70;1.00;;;;;;5057292;28;20191;-82
2023/02/28 07:31:10;;;;;;;15.40;8.70;;;0.80;1.00;;;;;;5057101;28;20199;-82
2023/02/28 07:33:39;;;;;;;15.70;9.75;;;0.90;1.00;;;;;;5057636;28;20207;-83
2023/02/28 07:36:09;;;;;;;11.82;8.60;;;1.00;1.00;;;;;;5057337;28;20196;-82
2023/02/28 07:38:37;;;;;;;12.55;8.60;;;1.00;99.90;;;;;;5057833;28;20249;-82
2023/02/28 07:41:05;;;;;;;11.40;8.40;;;1.00;99.90;;;;;;5058451;28;20211;-82
2023/02/28 07:43:32;;;;;;;19.30;8.65;;;1.30;1.00;;;;;;5056751;28;20239;-83
2023/02/28 07:46:03;;;;;;;13.90;8.55;;;1.20;99.90;;;;;;5057974;28;20247;-82
2023/02/28 07:48:30;;;;;;;15.20;9.48;;;1.20;99.90;;;;;;5059020;28;20303;-82
2023/02/28 07:51:00;;;;;;;17.17;8.90;;;1.20;99.90;;;;;;5057374;28;20304;-82
2023/02/28 07:53:27;;;;;;;14.15;8.40;;;1.30;99.90;;;;;;5056131;28;20226;-82
2023/02/28 07:55:56;;;;;;;11.43;8.30;;;1.40;99.90;;;;;;5056494;28;20289;-80
2023/02/28 07:58:23;;;;;;;12.18;8.75;;;1.40;93.10;;;;;;5058646;28;20290;-81
2023/02/28 08:00:50;;;;;;;9.38;7.38;;;1.40;89.30;;;;;;5056558;28;20207;-83
2023/02/28 08:03:18;;;;;;;12.35;8.35;;;1.50;10.90;;;;;;5058068;28;20247;-83
2023/02/28 08:05:45;;;;;;;11.90;7.30;;;1.50;1.00;;;;;;5068717;28;20220;-81
2023/02/28 08:08:13;;;;;;;9.10;7.60;;;1.70;1.00;;;;;;5059564;28;20239;-81
2023/02/28 08:10:40;;;;;;;8.90;5.97;;;1.70;1.00;;;;;;5058034;28;20203;-83
2023/02/28 08:13:07;;;;;;;9.13;4.97;;;1.90;1.00;;;;;;5076159;22;20227;-83
2023/02/28 08:15:34;;;;;;;8.15;5.10;;;2.30;1.00;;;;;;5066096;28;20725;-82
2023/02/28 08:18:01;;;;;;;6.72;4.97;;;2.50;1.00;;;;;;5066035;28;20234;-82
2023/02/28 08:20:28;;;;;;;10.23;6.20;;;2.40;1.00;;;;;;5070362;28;20231;-82
2023/02/28 08:22:55;;;;;;;8.23;5.47;;;2.30;1.00;;;;;;5064711;28;20246;-83
2023/02/28 08:25:23;;;;;;;7.85;5.28;;;5.10;1.00;;;;;;5067483;28;20206;-83
2023/02/28 08:27:52;;;;;;;6.53;4.50;;;2.40;1.00;;;;;;5066844;28;20634;-82
2023/02/28 08:30:19;;;;;;;5.47;4.40;;;2.50;1.00;;;;;;5065318;28;20257;-82
2023/02/28 08:32:46;;;;;;;7.00;5.07;;;2.40;1.00;;;;;;5067390;28;20289;-83
2023/02/28 08:35:13;;;;;;;6.30;5.30;;;2.70;1.00;;;;;;5066465;28;20207;-82
2023/02/28 08:37:40;;;;;;;9.07;5.68;;;2.40;1.00;;;;;;5065956;28;20199;-82
2023/02/28 08:40:08;;;;;;;11.68;5.60;;;2.60;1.00;;;;;;5073036;28;20225;-81
2023/02/28 08:42:37;;;;;;;9.43;5.50;;;2.50;1.00;;;;;;5074003;28;20283;-81
2023/02/28 08:45:04;;;;;;;6.47;4.63;;;2.60;1.00;;;;;;5073433;28;20238;-81
2023/02/28 08:47:31;;;;;;;8.80;4.85;;;2.60;1.00;;;;;;5062031;28;20234;-82
2023/02/28 08:49:58;;;;;;;5.78;4.60;;;2.70;1.00;;;;;;5060756;28;20202;-83
2023/02/28 08:52:25;;;;;;;13.52;4.93;;;2.70;1.00;;;;;;5060591;28;20226;-83
2023/02/28 08:54:51;;;;;;;4.57;3.97;;;2.70;1.00;;;;;;5060924;28;20290;-82
2023/02/28 08:57:18;;;;;;;6.72;5.07;;;2.90;1.00;;;;;;5060398;28;20270;-83
2023/02/28 08:59:46;;;;;;;4.90;4.45;;;3.00;1.00;;;;;;5058989;28;20305;-82
2023/02/28 09:02:14;;;;;;;14.10;4.97;;;3.00;1.00;;;;;;5059001;28;20220;-83
2023/02/28 09:04:41;;;;;;;4.95;4.20;;;3.00;1.00;;;;;;5058503;28;20204;-81
2023/02/28 09:07:08;;;;;;;17.25;5.80;;;2.90;1.00;;;;;;5059671;28;20589;-82
2023/02/28 09:09:35;;;;;;;5.95;4.15;;;3.00;1.00;;;;;;5062529;28;20234;-82
2023/02/28 09:12:01;;;;;;;5.20;3.17;;;3.00;1.00;;;;;;5064579;28;20242;-82
2023/02/28 09:14:28;;;;;;;4.38;4.05;;;3.10;1.00;;;;;;5066248;28;20275;-81
2023/02/28 09:16:56;;;;;;;4.32;3.30;;;3.10;1.00;;;;;;5064506;28;20395;-82
2023/02/28 09:19:23;;;;;;;4.55;3.75;;;3.10;1.00;;;;;;5063428;28;20298;-83
2023/02/28 09:21:50;;;;;;;4.28;3.75;;;3.10;1.00;;;;;;5064218;28;20248;-82
2023/02/28 09:24:18;;;;;;;6.80;3.90;;;3.20;1.00;;;;;;5068579;28;20203;-82
2023/02/28 09:26:44;;;;;;;4.25;3.60;;;3.10;1.00;;;;;;5081564;28;20215;-82
2023/02/28 09:29:12;;;;;;;5.00;3.50;;;3.30;1.00;;;;;;5081669;28;20200;-82
2023/02/28 09:31:38;;;;;;;6.38;3.40;;;3.40;1.00;;;;;;5081094;28;20195;-82
2023/02/28 09:34:07;;;;;;;2.47;2.28;;;3.30;1.00;;;;;;5067221;28;20259;-84
2023/02/28 09:36:34;;;;;;;4.50;2.63;;;3.40;1.00;;;;;;5061385;28;20231;-84
2023/02/28 09:39:02;;;;;;;2.88;2.03;;;3.30;1.00;;;;;;5068579;28;20243;-83
2023/02/28 09:41:39;;;;;;;3.05;2.85;;;3.30;1.00;;;;;;5067163;28;20259;-83
2023/02/28 09:44:12;;;;;;;2.50;1.85;;;3.50;1.00;;;;;;5066623;28;20187;-84
2023/02/28 09:46:44;;;;;;;3.03;2.20;;;3.40;1.00;;;;;;5067775;28;20320;-82
2023/02/28 09:49:17;;;;;;;2.47;2.10;;;3.40;1.00;;;;;;5062544;28;20223;-83
2023/02/28 09:51:57;;;;;;;1.90;1.80;;;3.20;1.00;;;;;;5063300;28;20219;-82
2023/02/28 09:54:25;;;;;;;3.33;2.55;;;3.50;1.00;;;;;;5062804;28;20191;-82
2023/02/28 09:56:57;;;;;;;2.78;2.58;;;3.60;1.00;;;;;;5062183;28;20247;-83
2023/02/28 09:59:36;;;;;;;2.85;2.33;;;3.60;1.00;;;;;;5063834;28;20230;-82
2023/02/28 10:02:16;;;;;;;2.40;2.20;;;3.70;1.00;;;;;;5069630;28;20224;-83
2023/02/28 10:04:54;;;;;;;5.30;2.38;;;3.70;1.00;;;;;;5066794;28;20195;-83
2023/02/28 10:07:39;;;;;;;4.00;2.50;;;3.70;99.90;;;;;;5068805;28;20207;-83
2023/02/28 10:10:15;;;;;;;6.00;3.33;;;3.70;99.90;;;;;;5067178;28;20188;-82
2023/02/28 10:12:46;;;;;;;3.63;3.10;;;3.80;1.00;;;;;;5065310;28;20230;-83
2023/02/28 10:15:15;;;;;;;2.63;2.42;;;3.60;1.00;;;;;;5065102;28;20184;-83
2023/02/28 10:17:46;;;;;;;3.70;2.95;;;3.90;99.90;;;;;;5066755;28;20201;-83
2023/02/28 10:20:20;;;;;;;2.90;2.70;;;3.80;99.90;;;;;;5066611;28;20205;-83
2023/02/28 10:22:54;;;;;;;4.47;2.90;;;3.90;99.90;;;;;;5065527;28;20224;-82
2023/02/28 10:25:23;;;;;;;3.33;3.03;;;3.90;99.90;;;;;;5065363;28;20282;-82
2023/02/28 10:27:53;;;;;;;3.70;2.80;;;3.90;99.90;;;;;;5064756;28;20231;-83
2023/02/28 10:30:21;;;;;;;4.15;2.85;;;4.00;99.90;;;;;;5064176;28;20195;-82
2023/02/28 10:32:53;;;;;;;4.95;3.08;;;4.10;99.90;;;;;;5063197;28;20227;-83
2023/02/28 10:35:22;;;;;;;3.58;2.17;;;4.10;1.00;;;;;;5062372;28;20200;-82
2023/02/28 10:37:51;;;;;;;3.47;2.67;;;4.10;99.90;;;;;;5061377;28;20290;-83
2023/02/28 10:40:33;;;;;;;2.70;2.50;;;4.00;99.90;;;;;;5062262;28;20624;-83
2023/02/28 10:43:02;;;;;;;4.13;2.70;;;4.10;99.90;;;;;;5061443;28;20223;-82
2023/02/28 10:45:31;;;;;;;3.28;2.50;;;4.20;99.90;;;;;;5061635;28;20634;-82
2023/02/28 10:48:01;;;;;;;3.20;2.70;;;4.20;99.90;;;;;;5061388;28;20322;-83
2023/02/28 10:50:37;;;;;;;12.07;3.47;;;4.10;99.90;;;;;;5062284;28;20749;-83
2023/02/28 10:53:15;;;;;;;3.05;2.33;;;4.10;99.90;;;;;;5061175;28;20223;-83
2023/02/28 10:55:42;;;;;;;3.00;2.08;;;4.00;99.90;;;;;;5061580;28;20705;-82
2023/02/28 10:58:23;;;;;;;5.70;2.47;;;4.10;99.90;;;;;;5066788;28;20203;-82
2023/02/28 11:00:50;;;;;;;2.83;2.40;;;4.10;99.90;;;;;;5069570;28;20214;-83
2023/02/28 11:03:26;;;;;;;3.38;2.58;;;4.10;99.90;;;;;;5062952;28;20230;-83
2023/02/28 11:05:54;;;;;;;4.38;2.38;;;4.10;99.90;;;;;;5062933;28;20615;-83
2023/02/28 11:08:21;;;;;;;5.82;2.55;;;4.20;1.00;;;;;;5062702;28;20266;-83
2023/02/28 11:10:54;;;;;;;3.63;2.35;;;4.30;99.90;;;;;;5062357;28;20238;-83
2023/02/28 11:13:25;;;;;;;6.90;3.50;;;4.30;99.90;;;;;;5062268;28;20648;-83
2023/02/28 11:15:55;;;;;;;3.55;3.25;;;4.20;99.90;;;;;;5062572;28;20188;-83
2023/02/28 11:18:30;;;;;;;5.72;3.30;;;4.20;1.00;;;;;;5061392;28;20262;-83
2023/02/28 11:21:00;;;;;;;3.15;2.85;;;4.20;99.90;;;;;;5061489;28;20214;-82
2023/02/28 11:23:29;;;;;;;6.45;3.65;;;4.20;99.90;;;;;;5060470;28;20310;-82
2023/02/28 11:26:01;;;;;;;4.20;3.70;;;4.30;99.90;;;;;;5059773;28;20219;-82
2023/02/28 11:28:32;;;;;;;9.15;3.53;;;4.40;99.90;;;;;;5060127;28;20581;-82
2023/02/28 11:31:06;;;;;;;5.55;3.45;;;4.40;99.90;;;;;;5058863;28;20647;-82
2023/02/28 11:33:42;;;;;;;5.35;3.53;;;4.20;99.90;;;;;;5061783;28;20237;-83
2023/02/28 11:36:14;;;;;;;3.15;2.85;;;4.20;99.90;;;;;;5061311;28;20214;-82
2023/02/28 11:38:42;;;;;;;2.70;2.50;;;4.30;99.90;;;;;;5062108;28;20196;-82
2023/02/28 11:41:38;;;;;;;4.75;4.03;;;4.40;99.90;;;;;;5066054;28;20270;-83
2023/02/28 11:44:29;;;;;;;4.22;3.00;;;4.50;99.90;;;;;;5067349;28;20223;-83
2023/02/28 11:47:00;;;;;;;4.75;3.50;;;4.50;99.90;;;;;;5072858;28;20291;-82
2023/02/28 11:49:35;;;;;;;5.40;3.47;;;4.50;99.90;;;;;;5073192;28;20195;-81
2023/02/28 11:52:11;;;;;;;8.02;2.90;;;4.50;99.90;;;;;;5063807;28;20309;-82
2023/02/28 11:55:03;;;;;;;4.88;3.65;;;4.60;99.90;;;;;;5062814;28;20205;-83
2023/02/28 11:57:44;;;;;;;4.90;3.58;;;4.60;99.90;;;;;;5061549;28;20194;-82
2023/02/28 12:00:24;;;;;;;5.07;3.45;;;4.60;99.90;;;;;;5060915;28;20191;-83
2023/02/28 12:03:04;;;;;;;5.05;2.83;;;4.60;99.90;;;;;;5060910;28;20273;-83
2023/02/28 12:05:36;;;;;;;4.50;3.65;;;4.70;99.90;;;;;;5059854;28;20271;-83
2023/02/28 12:08:16;;;;;;;3.53;3.22;;;4.80;99.90;;;;;;5059735;28;20212;-83
2023/02/28 12:10:53;;;;;;;6.47;4.90;;;4.80;99.90;;;;;;5058538;28;20203;-83
2023/02/28 12:13:27;;;;;;;3.70;3.40;;;5.00;99.90;;;;;;5059713;28;20235;-82
2023/02/28 12:16:18;;;;;;;4.38;3.40;;;4.90;99.90;;;;;;5061008;28;20197;-82
2023/02/28 12:19:02;;;;;;;6.20;3.60;;;4.90;99.90;;;;;;5060144;28;20262;-83
2023/02/28 12:21:38;;;;;;;6.05;3.50;;;4.80;1.00;;;;;;5059471;28;20282;-82
2023/02/28 12:24:33;;;;;;;8.07;3.40;;;4.80;99.90;;;;;;5064467;28;20275;-82
2023/02/28 12:27:04;;;;;;;7.13;3.70;;;4.90;99.90;;;;;;5060260;28;20208;-82
2023/02/28 12:29:34;;;;;;;5.75;4.10;;;5.00;1.00;;;;;;5059603;28;20674;-82
2023/02/28 12:32:07;;;;;;;4.15;3.53;;;5.00;99.90;;;;;;5060213;28;20228;-83
2023/02/28 12:35:11;;;;;;;;;;;;;;;;;;;;;
2023/02/28 12:37:43;;;;;;;2.80;2.60;;;5.20;1.00;;;;;;5075201;28;20187;-81
2023/02/28 12:40:16;;;;;;;4.55;3.05;;;5.00;99.90;;;;;;5073470;28;20172;-82
2023/02/28 12:42:47;;;;;;;4.00;3.30;;;4.90;99.90;;;;;;5076438;28;20231;-82
2023/02/28 12:45:19;;;;;;;5.45;3.08;;;5.00;99.90;;;;;;5070100;28;20275;-82
2023/02/28 12:47:50;;;;;;;4.45;3.60;;;5.10;99.90;;;;;;5067032;28;20229;-82
2023/02/28 12:50:17;;;;;;;4.78;3.50;;;5.00;99.90;;;;;;5066104;28;20639;-82
2023/02/28 12:52:54;;;;;;;6.40;3.72;;;5.00;99.90;;;;;;5065323;28;20744;-82
2023/02/28 12:55:28;;;;;;;9.30;3.90;;;5.10;99.90;;;;;;5065002;28;20202;-82
2023/02/28 12:58:03;;;;;;;3.47;3.25;;;5.10;99.90;;;;;;5066637;28;20188;-83
2023/02/28 13:00:35;;;;;;;7.05;3.13;;;5.30;1.00;;;;;;5069020;28;20199;-82
2023/02/28 13:03:30;;;;;;;5.07;3.65;;;5.20;99.90;;;;;;5074465;28;20234;-82
2023/02/28 13:06:14;;;;;;;3.00;2.58;;;5.20;99.90;;;;;;5073222;28;20195;-81
2023/02/28 13:09:00;;;;;;;3.22;2.42;;;5.50;1.00;;;;;;5072803;28;20207;-82
2023/02/28 13:11:32;;;;;;;3.58;2.90;;;5.30;1.00;;;;;;5074204;28;20259;-83
2023/02/28 13:14:01;;;;;;;4.65;3.13;;;5.20;99.90;;;;;;5070556;28;20227;-83
2023/02/28 13:16:28;;;;;;;8.07;3.53;;;5.10;99.90;;;;;;5069020;28;20290;-83